sensor_id;sensor_type;location;lat;lon;timestamp;P1;durP1;ratioP1;P2;durP2;ratioP2
52686;SDS011;38584;49.426;8.396;2023-09-07T00:00:06;17.92;;;7.38;;
52686;SDS011;38584;49.426;8.396;2023-09-07T00:02:35;19.42;;;7.30;;
52686;SDS011;38584;49.426;8.396;2023-09-07T00:05:01;19.67;;;7.00;;
52686;SDS011;38584;49.426;8.396;2023-09-07T00:07:26;16.45;;;8.02;;
52686;SDS011;38584;49.426;8.396;2023-09-07T00:09:51;18.42;;;7.68;;
52686;SDS011;38584;49.426;8.396;2023-09-07T00:12:17;17.90;;;7.00;;
52686;SDS011;38584;49.426;8.396;2023-09-07T00:14:45;18.08;;;7.53;;
52686;SDS011;38584;49.426;8.396;2023-09-07T00:17:11;16.73;;;7.90;;
52686;SDS011;38584;49.426;8.396;2023-09-07T00:19:39;17.67;;;7.28;;
52686;SDS011;38584;49.426;8.396;2023-09-07T00:22:04;16.85;;;7.28;;
52686;SDS011;38584;49.426;8.396;2023-09-07T00:24:30;17.90;;;7.53;;
52686;SDS011;38584;49.426;8.396;2023-09-07T00:26:56;19.60;;;7.82;;
52686;SDS011;38584;49.426;8.396;2023-09-07T00:29:24;17.33;;;7.15;;
52686;SDS011;38584;49.426;8.396;2023-09-07T00:31:49;21.33;;;7.53;;
52686;SDS011;38584;49.426;8.396;2023-09-07T00:34:14;16.83;;;7.43;;
52686;SDS011;38584;49.426;8.396;2023-09-07T00:36:40;14.82;;;6.07;;
52686;SDS011;38584;49.426;8.396;2023-09-07T00:39:05;12.43;;;6.45;;
52686;SDS011;38584;49.426;8.396;2023-09-07T00:41:30;17.25;;;7.50;;
52686;SDS011;38584;49.426;8.396;2023-09-07T00:43:56;14.50;;;7.38;;
52686;SDS011;38584;49.426;8.396;2023-09-07T00:46:21;15.00;;;6.97;;
52686;SDS011;38584;49.426;8.396;2023-09-07T00:48:47;17.30;;;7.50;;
52686;SDS011;38584;49.426;8.396;2023-09-07T00:51:13;15.50;;;7.18;;
52686;SDS011;38584;49.426;8.396;2023-09-07T00:53:41;20.00;;;7.57;;
52686;SDS011;38584;49.426;8.396;2023-09-07T00:56:06;17.10;;;7.07;;
52686;SDS011;38584;49.426;8.396;2023-09-07T00:58:32;14.00;;;7.50;;
52686;SDS011;38584;49.426;8.396;2023-09-07T01:00:57;17.38;;;7.40;;
52686;SDS011;38584;49.426;8.396;2023-09-07T01:03:24;14.88;;;7.38;;
52686;SDS011;38584;49.426;8.396;2023-09-07T01:05:56;14.27;;;6.95;;
52686;SDS011;38584;49.426;8.396;2023-09-07T01:08:26;15.05;;;7.40;;
52686;SDS011;38584;49.426;8.396;2023-09-07T01:10:57;15.90;;;7.53;;
52686;SDS011;38584;49.426;8.396;2023-09-07T01:13:22;21.38;;;7.32;;
52686;SDS011;38584;49.426;8.396;2023-09-07T01:15:53;15.88;;;7.65;;
52686;SDS011;38584;49.426;8.396;2023-09-07T01:18:19;18.42;;;8.05;;
52686;SDS011;38584;49.426;8.396;2023-09-07T01:20:44;15.10;;;7.30;;
52686;SDS011;38584;49.426;8.396;2023-09-07T01:23:10;17.08;;;7.78;;
52686;SDS011;38584;49.426;8.396;2023-09-07T01:25:37;17.17;;;8.50;;
52686;SDS011;38584;49.426;8.396;2023-09-07T01:28:06;17.70;;;7.57;;
52686;SDS011;38584;49.426;8.396;2023-09-07T01:30:31;14.38;;;7.60;;
52686;SDS011;38584;49.426;8.396;2023-09-07T01:33:00;22.83;;;8.32;;
52686;SDS011;38584;49.426;8.396;2023-09-07T01:35:25;19.25;;;8.68;;
52686;SDS011;38584;49.426;8.396;2023-09-07T01:37:51;18.17;;;8.45;;
52686;SDS011;38584;49.426;8.396;2023-09-07T01:40:17;17.33;;;8.88;;
52686;SDS011;38584;49.426;8.396;2023-09-07T01:42:42;15.48;;;7.70;;
52686;SDS011;38584;49.426;8.396;2023-09-07T01:45:07;16.20;;;8.43;;
52686;SDS011;38584;49.426;8.396;2023-09-07T01:47:39;19.13;;;9.18;;
52686;SDS011;38584;49.426;8.396;2023-09-07T01:50:07;15.18;;;8.55;;
52686;SDS011;38584;49.426;8.396;2023-09-07T01:52:33;21.05;;;8.95;;
52686;SDS011;38584;49.426;8.396;2023-09-07T01:54:59;17.20;;;8.63;;
52686;SDS011;38584;49.426;8.396;2023-09-07T01:57:24;17.20;;;8.93;;
52686;SDS011;38584;49.426;8.396;2023-09-07T01:59:49;18.70;;;8.35;;
52686;SDS011;38584;49.426;8.396;2023-09-07T02:02:14;16.23;;;8.23;;
52686;SDS011;38584;49.426;8.396;2023-09-07T02:04:40;17.48;;;8.77;;
52686;SDS011;38584;49.426;8.396;2023-09-07T02:07:12;17.90;;;8.55;;
52686;SDS011;38584;49.426;8.396;2023-09-07T02:09:38;17.38;;;8.27;;
52686;SDS011;38584;49.426;8.396;2023-09-07T02:12:04;16.20;;;7.93;;
52686;SDS011;38584;49.426;8.396;2023-09-07T02:14:36;18.67;;;8.50;;
52686;SDS011;38584;49.426;8.396;2023-09-07T02:17:01;16.45;;;9.13;;
52686;SDS011;38584;49.426;8.396;2023-09-07T02:19:26;17.90;;;8.43;;
52686;SDS011;38584;49.426;8.396;2023-09-07T02:21:52;21.73;;;8.43;;
52686;SDS011;38584;49.426;8.396;2023-09-07T02:24:17;17.08;;;8.70;;
52686;SDS011;38584;49.426;8.396;2023-09-07T02:26:43;17.42;;;8.32;;
52686;SDS011;38584;49.426;8.396;2023-09-07T02:29:11;17.27;;;9.05;;
52686;SDS011;38584;49.426;8.396;2023-09-07T02:31:37;24.25;;;8.85;;
52686;SDS011;38584;49.426;8.396;2023-09-07T02:34:02;22.65;;;9.02;;
52686;SDS011;38584;49.426;8.396;2023-09-07T02:36:28;20.98;;;9.07;;
52686;SDS011;38584;49.426;8.396;2023-09-07T02:38:54;18.65;;;8.63;;
52686;SDS011;38584;49.426;8.396;2023-09-07T02:41:19;18.73;;;9.25;;
52686;SDS011;38584;49.426;8.396;2023-09-07T02:43:47;15.63;;;8.27;;
52686;SDS011;38584;49.426;8.396;2023-09-07T02:46:12;17.10;;;8.68;;
52686;SDS011;38584;49.426;8.396;2023-09-07T02:48:38;16.63;;;8.68;;
52686;SDS011;38584;49.426;8.396;2023-09-07T02:51:03;17.67;;;8.50;;
52686;SDS011;38584;49.426;8.396;2023-09-07T02:53:28;18.58;;;8.85;;
52686;SDS011;38584;49.426;8.396;2023-09-07T02:55:54;17.58;;;8.20;;
52686;SDS011;38584;49.426;8.396;2023-09-07T02:58:20;18.67;;;8.98;;
52686;SDS011;38584;49.426;8.396;2023-09-07T03:00:45;15.80;;;8.88;;
52686;SDS011;38584;49.426;8.396;2023-09-07T03:03:12;17.77;;;8.63;;
52686;SDS011;38584;49.426;8.396;2023-09-07T03:05:42;14.90;;;8.35;;
52686;SDS011;38584;49.426;8.396;2023-09-07T03:08:08;18.83;;;7.85;;
52686;SDS011;38584;49.426;8.396;2023-09-07T03:10:35;16.80;;;8.65;;
52686;SDS011;38584;49.426;8.396;2023-09-07T03:13:01;15.98;;;7.80;;
52686;SDS011;38584;49.426;8.396;2023-09-07T03:15:26;17.38;;;8.38;;
52686;SDS011;38584;49.426;8.396;2023-09-07T03:17:55;20.90;;;8.93;;
52686;SDS011;38584;49.426;8.396;2023-09-07T03:20:20;17.33;;;8.40;;
52686;SDS011;38584;49.426;8.396;2023-09-07T03:22:46;16.38;;;8.55;;
52686;SDS011;38584;49.426;8.396;2023-09-07T03:25:14;21.08;;;8.77;;
52686;SDS011;38584;49.426;8.396;2023-09-07T03:27:42;16.05;;;8.50;;
52686;SDS011;38584;49.426;8.396;2023-09-07T03:30:08;18.77;;;8.88;;
52686;SDS011;38584;49.426;8.396;2023-09-07T03:32:33;18.17;;;8.45;;
52686;SDS011;38584;49.426;8.396;2023-09-07T03:34:59;16.00;;;8.07;;
52686;SDS011;38584;49.426;8.396;2023-09-07T03:37:28;20.08;;;8.95;;
52686;SDS011;38584;49.426;8.396;2023-09-07T03:39:54;18.23;;;8.90;;
52686;SDS011;38584;49.426;8.396;2023-09-07T03:42:29;18.23;;;9.27;;
52686;SDS011;38584;49.426;8.396;2023-09-07T03:44:57;15.85;;;8.35;;
52686;SDS011;38584;49.426;8.396;2023-09-07T03:47:23;19.42;;;8.60;;
52686;SDS011;38584;49.426;8.396;2023-09-07T03:49:53;16.85;;;8.52;;
52686;SDS011;38584;49.426;8.396;2023-09-07T03:52:19;20.60;;;8.82;;
52686;SDS011;38584;49.426;8.396;2023-09-07T03:54:46;16.20;;;8.45;;
52686;SDS011;38584;49.426;8.396;2023-09-07T03:57:14;17.10;;;8.90;;
52686;SDS011;38584;49.426;8.396;2023-09-07T03:59:39;15.98;;;7.93;;
52686;SDS011;38584;49.426;8.396;2023-09-07T04:02:05;15.68;;;8.35;;
52686;SDS011;38584;49.426;8.396;2023-09-07T04:04:30;21.00;;;8.77;;
52686;SDS011;38584;49.426;8.396;2023-09-07T04:06:58;16.08;;;8.65;;
52686;SDS011;38584;49.426;8.396;2023-09-07T04:09:23;19.17;;;8.65;;
52686;SDS011;38584;49.426;8.396;2023-09-07T04:11:49;16.67;;;8.82;;
52686;SDS011;38584;49.426;8.396;2023-09-07T04:14:20;15.60;;;8.30;;
52686;SDS011;38584;49.426;8.396;2023-09-07T04:16:45;18.27;;;9.10;;
52686;SDS011;38584;49.426;8.396;2023-09-07T04:19:11;17.63;;;9.07;;
52686;SDS011;38584;49.426;8.396;2023-09-07T04:21:39;19.58;;;8.57;;
52686;SDS011;38584;49.426;8.396;2023-09-07T04:24:04;20.20;;;9.07;;
52686;SDS011;38584;49.426;8.396;2023-09-07T04:26:30;17.55;;;9.00;;
52686;SDS011;38584;49.426;8.396;2023-09-07T04:28:55;17.30;;;9.07;;
52686;SDS011;38584;49.426;8.396;2023-09-07T04:31:21;19.33;;;9.55;;
52686;SDS011;38584;49.426;8.396;2023-09-07T04:33:46;20.98;;;8.75;;
52686;SDS011;38584;49.426;8.396;2023-09-07T04:36:12;15.25;;;8.30;;
52686;SDS011;38584;49.426;8.396;2023-09-07T04:38:50;17.65;;;8.85;;
52686;SDS011;38584;49.426;8.396;2023-09-07T04:41:16;17.90;;;8.57;;
52686;SDS011;38584;49.426;8.396;2023-09-07T04:43:41;18.70;;;8.65;;
52686;SDS011;38584;49.426;8.396;2023-09-07T04:46:10;20.13;;;9.02;;
52686;SDS011;38584;49.426;8.396;2023-09-07T04:48:36;19.30;;;8.70;;
52686;SDS011;38584;49.426;8.396;2023-09-07T04:51:02;20.38;;;9.20;;
52686;SDS011;38584;49.426;8.396;2023-09-07T04:53:29;19.25;;;9.30;;
52686;SDS011;38584;49.426;8.396;2023-09-07T04:55:56;19.83;;;9.23;;
52686;SDS011;38584;49.426;8.396;2023-09-07T04:58:22;19.50;;;8.82;;
52686;SDS011;38584;49.426;8.396;2023-09-07T05:00:47;21.58;;;8.63;;
52686;SDS011;38584;49.426;8.396;2023-09-07T05:03:13;23.73;;;9.32;;
52686;SDS011;38584;49.426;8.396;2023-09-07T05:05:38;23.83;;;9.70;;
52686;SDS011;38584;49.426;8.396;2023-09-07T05:08:04;24.05;;;9.15;;
52686;SDS011;38584;49.426;8.396;2023-09-07T05:10:32;21.05;;;8.93;;
52686;SDS011;38584;49.426;8.396;2023-09-07T05:12:58;20.27;;;8.65;;
52686;SDS011;38584;49.426;8.396;2023-09-07T05:15:23;23.83;;;8.73;;
52686;SDS011;38584;49.426;8.396;2023-09-07T05:17:53;21.50;;;8.52;;
52686;SDS011;38584;49.426;8.396;2023-09-07T05:20:19;21.13;;;8.75;;
52686;SDS011;38584;49.426;8.396;2023-09-07T05:22:44;17.92;;;9.13;;
52686;SDS011;38584;49.426;8.396;2023-09-07T05:25:10;24.88;;;9.52;;
52686;SDS011;38584;49.426;8.396;2023-09-07T05:27:42;18.85;;;9.10;;
52686;SDS011;38584;49.426;8.396;2023-09-07T05:30:10;19.55;;;8.75;;
52686;SDS011;38584;49.426;8.396;2023-09-07T05:32:42;26.13;;;9.65;;
52686;SDS011;38584;49.426;8.396;2023-09-07T05:35:07;23.13;;;9.50;;
52686;SDS011;38584;49.426;8.396;2023-09-07T05:37:41;19.67;;;9.35;;
52686;SDS011;38584;49.426;8.396;2023-09-07T05:40:07;18.80;;;8.85;;
52686;SDS011;38584;49.426;8.396;2023-09-07T05:42:35;16.58;;;8.45;;
52686;SDS011;38584;49.426;8.396;2023-09-07T05:45:02;17.60;;;8.82;;
52686;SDS011;38584;49.426;8.396;2023-09-07T05:47:28;27.20;;;9.40;;
52686;SDS011;38584;49.426;8.396;2023-09-07T05:49:57;23.27;;;9.10;;
52686;SDS011;38584;49.426;8.396;2023-09-07T05:52:22;21.13;;;9.10;;
52686;SDS011;38584;49.426;8.396;2023-09-07T05:54:47;19.23;;;9.48;;
52686;SDS011;38584;49.426;8.396;2023-09-07T05:57:13;16.83;;;8.90;;
52686;SDS011;38584;49.426;8.396;2023-09-07T05:59:38;17.17;;;8.85;;
52686;SDS011;38584;49.426;8.396;2023-09-07T06:02:09;20.80;;;9.18;;
52686;SDS011;38584;49.426;8.396;2023-09-07T06:04:38;18.25;;;8.35;;
52686;SDS011;38584;49.426;8.396;2023-09-07T06:07:06;17.45;;;8.57;;
52686;SDS011;38584;49.426;8.396;2023-09-07T06:09:32;22.23;;;9.77;;
52686;SDS011;38584;49.426;8.396;2023-09-07T06:11:57;21.73;;;8.63;;
52686;SDS011;38584;49.426;8.396;2023-09-07T06:14:25;15.00;;;9.38;;
52686;SDS011;38584;49.426;8.396;2023-09-07T06:16:50;19.00;;;9.43;;
52686;SDS011;38584;49.426;8.396;2023-09-07T06:19:16;19.90;;;9.98;;
52686;SDS011;38584;49.426;8.396;2023-09-07T06:21:41;18.08;;;9.20;;
52686;SDS011;38584;49.426;8.396;2023-09-07T06:24:16;21.10;;;10.02;;
52686;SDS011;38584;49.426;8.396;2023-09-07T06:26:41;20.30;;;9.43;;
52686;SDS011;38584;49.426;8.396;2023-09-07T06:29:07;17.67;;;9.30;;
52686;SDS011;38584;49.426;8.396;2023-09-07T06:31:33;22.67;;;10.05;;
52686;SDS011;38584;49.426;8.396;2023-09-07T06:33:58;22.35;;;10.43;;
52686;SDS011;38584;49.426;8.396;2023-09-07T06:36:26;16.30;;;9.18;;
52686;SDS011;38584;49.426;8.396;2023-09-07T06:38:52;23.13;;;9.60;;
52686;SDS011;38584;49.426;8.396;2023-09-07T06:41:17;20.30;;;9.75;;
52686;SDS011;38584;49.426;8.396;2023-09-07T06:43:42;20.55;;;9.63;;
52686;SDS011;38584;49.426;8.396;2023-09-07T06:46:08;16.88;;;10.15;;
52686;SDS011;38584;49.426;8.396;2023-09-07T06:48:34;18.63;;;10.32;;
52686;SDS011;38584;49.426;8.396;2023-09-07T06:51:03;20.65;;;9.82;;
52686;SDS011;38584;49.426;8.396;2023-09-07T06:53:30;22.80;;;10.25;;
52686;SDS011;38584;49.426;8.396;2023-09-07T06:55:59;20.95;;;11.10;;
52686;SDS011;38584;49.426;8.396;2023-09-07T06:58:24;18.73;;;9.98;;
52686;SDS011;38584;49.426;8.396;2023-09-07T07:00:50;18.75;;;10.30;;
52686;SDS011;38584;49.426;8.396;2023-09-07T07:03:18;26.08;;;11.07;;
52686;SDS011;38584;49.426;8.396;2023-09-07T07:05:43;19.35;;;10.82;;
52686;SDS011;38584;49.426;8.396;2023-09-07T07:08:11;21.17;;;11.75;;
52686;SDS011;38584;49.426;8.396;2023-09-07T07:10:40;21.15;;;11.00;;
52686;SDS011;38584;49.426;8.396;2023-09-07T07:13:08;25.33;;;11.00;;
52686;SDS011;38584;49.426;8.396;2023-09-07T07:15:34;20.85;;;10.52;;
52686;SDS011;38584;49.426;8.396;2023-09-07T07:18:00;25.67;;;11.52;;
52686;SDS011;38584;49.426;8.396;2023-09-07T07:20:26;20.90;;;10.48;;
52686;SDS011;38584;49.426;8.396;2023-09-07T07:26:12;22.95;;;11.00;;
52686;SDS011;38584;49.426;8.396;2023-09-07T07:28:38;27.58;;;10.93;;
52686;SDS011;38584;49.426;8.396;2023-09-07T07:31:07;25.00;;;10.80;;
52686;SDS011;38584;49.426;8.396;2023-09-07T07:33:34;21.33;;;10.18;;
52686;SDS011;38584;49.426;8.396;2023-09-07T07:36:03;23.27;;;10.40;;
52686;SDS011;38584;49.426;8.396;2023-09-07T07:38:29;19.35;;;10.10;;
52686;SDS011;38584;49.426;8.396;2023-09-07T07:40:57;22.27;;;10.80;;
52686;SDS011;38584;49.426;8.396;2023-09-07T07:43:23;25.00;;;11.02;;
52686;SDS011;38584;49.426;8.396;2023-09-07T07:45:54;20.00;;;9.93;;
52686;SDS011;38584;49.426;8.396;2023-09-07T07:48:19;20.85;;;10.63;;
52686;SDS011;38584;49.426;8.396;2023-09-07T07:50:45;24.58;;;11.07;;
52686;SDS011;38584;49.426;8.396;2023-09-07T07:53:10;21.95;;;10.85;;
52686;SDS011;38584;49.426;8.396;2023-09-07T07:55:36;21.52;;;10.43;;
52686;SDS011;38584;49.426;8.396;2023-09-07T07:58:05;18.75;;;9.80;;
52686;SDS011;38584;49.426;8.396;2023-09-07T08:00:33;26.83;;;10.65;;
52686;SDS011;38584;49.426;8.396;2023-09-07T08:03:02;23.15;;;10.35;;
52686;SDS011;38584;49.426;8.396;2023-09-07T08:05:28;19.38;;;10.68;;
52686;SDS011;38584;49.426;8.396;2023-09-07T08:07:54;16.40;;;8.82;;
52686;SDS011;38584;49.426;8.396;2023-09-07T08:10:19;19.52;;;9.65;;
52686;SDS011;38584;49.426;8.396;2023-09-07T08:12:44;16.63;;;8.93;;
52686;SDS011;38584;49.426;8.396;2023-09-07T08:15:13;23.13;;;9.90;;
52686;SDS011;38584;49.426;8.396;2023-09-07T08:17:39;21.05;;;10.00;;
52686;SDS011;38584;49.426;8.396;2023-09-07T08:20:05;22.00;;;10.20;;
52686;SDS011;38584;49.426;8.396;2023-09-07T08:22:32;19.88;;;9.00;;
52686;SDS011;38584;49.426;8.396;2023-09-07T08:25:00;18.90;;;8.95;;
52686;SDS011;38584;49.426;8.396;2023-09-07T08:27:25;17.02;;;8.77;;
52686;SDS011;38584;49.426;8.396;2023-09-07T08:29:56;18.42;;;8.73;;
52686;SDS011;38584;49.426;8.396;2023-09-07T08:32:22;15.55;;;7.57;;
52686;SDS011;38584;49.426;8.396;2023-09-07T08:34:47;16.95;;;6.88;;
52686;SDS011;38584;49.426;8.396;2023-09-07T08:37:16;14.27;;;7.13;;
52686;SDS011;38584;49.426;8.396;2023-09-07T08:39:41;15.73;;;7.20;;
52686;SDS011;38584;49.426;8.396;2023-09-07T08:42:07;16.05;;;6.47;;
52686;SDS011;38584;49.426;8.396;2023-09-07T08:44:33;17.40;;;6.53;;
52686;SDS011;38584;49.426;8.396;2023-09-07T08:47:00;16.75;;;6.05;;
52686;SDS011;38584;49.426;8.396;2023-09-07T08:49:28;18.08;;;6.65;;
52686;SDS011;38584;49.426;8.396;2023-09-07T08:51:57;20.05;;;6.18;;
52686;SDS011;38584;49.426;8.396;2023-09-07T08:54:23;20.80;;;6.93;;
52686;SDS011;38584;49.426;8.396;2023-09-07T08:56:49;14.55;;;6.57;;
52686;SDS011;38584;49.426;8.396;2023-09-07T08:59:15;16.90;;;6.97;;
52686;SDS011;38584;49.426;8.396;2023-09-07T09:01:40;16.02;;;6.60;;
52686;SDS011;38584;49.426;8.396;2023-09-07T09:04:09;15.38;;;6.50;;
52686;SDS011;38584;49.426;8.396;2023-09-07T09:06:34;14.05;;;6.50;;
52686;SDS011;38584;49.426;8.396;2023-09-07T09:09:03;14.90;;;5.95;;
52686;SDS011;38584;49.426;8.396;2023-09-07T09:11:30;16.42;;;6.15;;
52686;SDS011;38584;49.426;8.396;2023-09-07T09:13:55;15.68;;;5.93;;
52686;SDS011;38584;49.426;8.396;2023-09-07T09:16:24;15.13;;;6.20;;
52686;SDS011;38584;49.426;8.396;2023-09-07T09:18:50;16.70;;;5.88;;
52686;SDS011;38584;49.426;8.396;2023-09-07T09:21:23;15.00;;;5.43;;
52686;SDS011;38584;49.426;8.396;2023-09-07T09:23:51;16.83;;;5.82;;
52686;SDS011;38584;49.426;8.396;2023-09-07T09:26:17;18.55;;;6.03;;
52686;SDS011;38584;49.426;8.396;2023-09-07T09:28:42;15.82;;;5.72;;
52686;SDS011;38584;49.426;8.396;2023-09-07T09:31:14;15.73;;;6.10;;
52686;SDS011;38584;49.426;8.396;2023-09-07T09:33:40;19.48;;;6.45;;
52686;SDS011;38584;49.426;8.396;2023-09-07T09:36:06;15.52;;;5.28;;
52686;SDS011;38584;49.426;8.396;2023-09-07T09:38:32;16.85;;;5.38;;
52686;SDS011;38584;49.426;8.396;2023-09-07T09:41:01;18.33;;;5.38;;
52686;SDS011;38584;49.426;8.396;2023-09-07T09:43:28;15.73;;;5.47;;
52686;SDS011;38584;49.426;8.396;2023-09-07T09:45:56;13.98;;;5.25;;
52686;SDS011;38584;49.426;8.396;2023-09-07T09:48:22;13.30;;;4.90;;
52686;SDS011;38584;49.426;8.396;2023-09-07T09:50:48;15.82;;;5.38;;
52686;SDS011;38584;49.426;8.396;2023-09-07T09:53:15;17.98;;;5.07;;
52686;SDS011;38584;49.426;8.396;2023-09-07T09:55:43;15.32;;;4.70;;
52686;SDS011;38584;49.426;8.396;2023-09-07T09:58:15;12.50;;;5.00;;
52686;SDS011;38584;49.426;8.396;2023-09-07T10:00:53;17.15;;;4.55;;
52686;SDS011;38584;49.426;8.396;2023-09-07T10:03:33;17.30;;;5.25;;
52686;SDS011;38584;49.426;8.396;2023-09-07T10:08:58;10.32;;;4.70;;
52686;SDS011;38584;49.426;8.396;2023-09-07T10:11:30;13.00;;;4.80;;
52686;SDS011;38584;49.426;8.396;2023-09-07T10:13:57;11.90;;;4.57;;
52686;SDS011;38584;49.426;8.396;2023-09-07T10:16:28;9.77;;;4.30;;
52686;SDS011;38584;49.426;8.396;2023-09-07T10:18:53;10.25;;;4.63;;
52686;SDS011;38584;49.426;8.396;2023-09-07T10:21:19;12.77;;;4.85;;
52686;SDS011;38584;49.426;8.396;2023-09-07T10:23:45;13.50;;;5.05;;
52686;SDS011;38584;49.426;8.396;2023-09-07T10:26:17;12.85;;;4.57;;
52686;SDS011;38584;49.426;8.396;2023-09-07T10:28:43;10.82;;;4.10;;
52686;SDS011;38584;49.426;8.396;2023-09-07T10:31:13;10.63;;;4.20;;
52686;SDS011;38584;49.426;8.396;2023-09-07T10:33:40;11.07;;;4.20;;
52686;SDS011;38584;49.426;8.396;2023-09-07T10:36:08;12.32;;;4.18;;
52686;SDS011;38584;49.426;8.396;2023-09-07T10:38:46;10.48;;;4.18;;
52686;SDS011;38584;49.426;8.396;2023-09-07T10:41:11;14.75;;;4.60;;
52686;SDS011;38584;49.426;8.396;2023-09-07T10:43:46;11.45;;;4.18;;
52686;SDS011;38584;49.426;8.396;2023-09-07T10:46:22;12.82;;;4.53;;
52686;SDS011;38584;49.426;8.396;2023-09-07T10:48:51;11.23;;;4.30;;
52686;SDS011;38584;49.426;8.396;2023-09-07T10:51:20;12.95;;;4.38;;
52686;SDS011;38584;49.426;8.396;2023-09-07T10:53:46;11.75;;;3.85;;
52686;SDS011;38584;49.426;8.396;2023-09-07T10:56:14;9.40;;;3.88;;
52686;SDS011;38584;49.426;8.396;2023-09-07T10:58:40;14.10;;;3.85;;
52686;SDS011;38584;49.426;8.396;2023-09-07T11:01:09;10.70;;;4.30;;
52686;SDS011;38584;49.426;8.396;2023-09-07T11:03:36;9.60;;;4.00;;
52686;SDS011;38584;49.426;8.396;2023-09-07T11:06:09;10.07;;;3.88;;
52686;SDS011;38584;49.426;8.396;2023-09-07T11:11:04;13.93;;;4.03;;
52686;SDS011;38584;49.426;8.396;2023-09-07T11:13:30;16.60;;;4.50;;
52686;SDS011;38584;49.426;8.396;2023-09-07T11:15:58;22.50;;;4.60;;
52686;SDS011;38584;49.426;8.396;2023-09-07T11:18:24;16.33;;;4.28;;
52686;SDS011;38584;49.426;8.396;2023-09-07T11:20:51;13.82;;;4.30;;
52686;SDS011;38584;49.426;8.396;2023-09-07T11:23:17;12.68;;;3.78;;
52686;SDS011;38584;49.426;8.396;2023-09-07T11:25:43;14.52;;;4.32;;
52686;SDS011;38584;49.426;8.396;2023-09-07T11:28:11;11.10;;;3.85;;
52686;SDS011;38584;49.426;8.396;2023-09-07T11:30:37;10.43;;;3.85;;
52686;SDS011;38584;49.426;8.396;2023-09-07T11:33:03;10.07;;;3.50;;
52686;SDS011;38584;49.426;8.396;2023-09-07T11:35:33;13.02;;;3.67;;
52686;SDS011;38584;49.426;8.396;2023-09-07T11:38:03;25.33;;;4.25;;
52686;SDS011;38584;49.426;8.396;2023-09-07T11:40:33;16.15;;;4.70;;
52686;SDS011;38584;49.426;8.396;2023-09-07T11:42:58;11.52;;;3.88;;
52686;SDS011;38584;49.426;8.396;2023-09-07T11:45:24;11.80;;;3.40;;
52686;SDS011;38584;49.426;8.396;2023-09-07T11:47:49;13.35;;;4.10;;
52686;SDS011;38584;49.426;8.396;2023-09-07T11:50:18;9.98;;;3.83;;
52686;SDS011;38584;49.426;8.396;2023-09-07T11:52:44;8.60;;;3.30;;
52686;SDS011;38584;49.426;8.396;2023-09-07T11:55:13;12.00;;;3.58;;
52686;SDS011;38584;49.426;8.396;2023-09-07T11:57:42;10.80;;;3.65;;
52686;SDS011;38584;49.426;8.396;2023-09-07T12:00:08;14.45;;;3.83;;
52686;SDS011;38584;49.426;8.396;2023-09-07T12:02:39;10.30;;;3.65;;
52686;SDS011;38584;49.426;8.396;2023-09-07T12:05:05;9.63;;;3.70;;
52686;SDS011;38584;49.426;8.396;2023-09-07T12:07:39;9.02;;;3.50;;
52686;SDS011;38584;49.426;8.396;2023-09-07T12:10:05;10.25;;;3.75;;
52686;SDS011;38584;49.426;8.396;2023-09-07T12:12:35;22.75;;;3.78;;
52686;SDS011;38584;49.426;8.396;2023-09-07T12:15:00;13.15;;;3.60;;
52686;SDS011;38584;49.426;8.396;2023-09-07T12:17:26;12.32;;;3.78;;
52686;SDS011;38584;49.426;8.396;2023-09-07T12:19:51;9.63;;;3.40;;
52686;SDS011;38584;49.426;8.396;2023-09-07T12:22:17;9.98;;;3.33;;
52686;SDS011;38584;49.426;8.396;2023-09-07T12:24:49;10.30;;;3.45;;
52686;SDS011;38584;49.426;8.396;2023-09-07T12:27:15;12.30;;;3.58;;
52686;SDS011;38584;49.426;8.396;2023-09-07T12:29:40;13.95;;;3.60;;
52686;SDS011;38584;49.426;8.396;2023-09-07T12:32:09;17.05;;;3.90;;
52686;SDS011;38584;49.426;8.396;2023-09-07T12:34:40;11.25;;;3.60;;
52686;SDS011;38584;49.426;8.396;2023-09-07T12:37:06;13.43;;;3.38;;
52686;SDS011;38584;49.426;8.396;2023-09-07T12:39:31;9.88;;;3.42;;
52686;SDS011;38584;49.426;8.396;2023-09-07T12:41:57;7.95;;;3.15;;
52686;SDS011;38584;49.426;8.396;2023-09-07T12:44:22;11.75;;;3.38;;
52686;SDS011;38584;49.426;8.396;2023-09-07T12:46:51;7.78;;;3.20;;
52686;SDS011;38584;49.426;8.396;2023-09-07T12:49:16;9.27;;;3.40;;
52686;SDS011;38584;49.426;8.396;2023-09-07T12:51:42;10.63;;;3.80;;
52686;SDS011;38584;49.426;8.396;2023-09-07T12:54:07;14.68;;;3.17;;
52686;SDS011;38584;49.426;8.396;2023-09-07T12:56:33;7.40;;;3.20;;
52686;SDS011;38584;49.426;8.396;2023-09-07T12:58:58;12.00;;;3.38;;
52686;SDS011;38584;49.426;8.396;2023-09-07T13:01:25;7.90;;;3.35;;
52686;SDS011;38584;49.426;8.396;2023-09-07T13:03:53;13.30;;;3.30;;
52686;SDS011;38584;49.426;8.396;2023-09-07T13:06:18;6.85;;;2.97;;
52686;SDS011;38584;49.426;8.396;2023-09-07T13:08:44;11.55;;;3.08;;
52686;SDS011;38584;49.426;8.396;2023-09-07T13:11:10;9.68;;;3.10;;
52686;SDS011;38584;49.426;8.396;2023-09-07T13:13:35;8.23;;;3.40;;
52686;SDS011;38584;49.426;8.396;2023-09-07T13:16:01;9.95;;;3.22;;
52686;SDS011;38584;49.426;8.396;2023-09-07T13:18:26;8.98;;;3.50;;
52686;SDS011;38584;49.426;8.396;2023-09-07T13:20:51;10.60;;;3.33;;
52686;SDS011;38584;49.426;8.396;2023-09-07T13:23:19;11.48;;;3.53;;
52686;SDS011;38584;49.426;8.396;2023-09-07T13:25:45;8.00;;;3.17;;
52686;SDS011;38584;49.426;8.396;2023-09-07T13:28:10;8.70;;;3.10;;
52686;SDS011;38584;49.426;8.396;2023-09-07T13:30:42;9.70;;;3.40;;
52686;SDS011;38584;49.426;8.396;2023-09-07T13:33:10;9.15;;;3.38;;
52686;SDS011;38584;49.426;8.396;2023-09-07T13:35:36;7.65;;;3.40;;
52686;SDS011;38584;49.426;8.396;2023-09-07T13:38:04;7.28;;;3.20;;
52686;SDS011;38584;49.426;8.396;2023-09-07T13:40:29;12.55;;;3.40;;
52686;SDS011;38584;49.426;8.396;2023-09-07T13:42:55;8.45;;;3.10;;
52686;SDS011;38584;49.426;8.396;2023-09-07T13:45:21;9.35;;;3.20;;
52686;SDS011;38584;49.426;8.396;2023-09-07T13:47:47;12.75;;;3.60;;
52686;SDS011;38584;49.426;8.396;2023-09-07T13:50:15;8.77;;;3.47;;
52686;SDS011;38584;49.426;8.396;2023-09-07T13:52:40;9.60;;;3.38;;
52686;SDS011;38584;49.426;8.396;2023-09-07T13:55:06;11.48;;;3.42;;
52686;SDS011;38584;49.426;8.396;2023-09-07T13:57:32;11.85;;;3.38;;
52686;SDS011;38584;49.426;8.396;2023-09-07T13:59:57;8.07;;;3.35;;
52686;SDS011;38584;49.426;8.396;2023-09-07T14:02:23;9.80;;;3.30;;
52686;SDS011;38584;49.426;8.396;2023-09-07T14:04:48;11.32;;;3.67;;
52686;SDS011;38584;49.426;8.396;2023-09-07T14:07:14;9.43;;;3.28;;
52686;SDS011;38584;49.426;8.396;2023-09-07T14:09:39;8.30;;;3.40;;
52686;SDS011;38584;49.426;8.396;2023-09-07T14:12:05;9.45;;;3.50;;
52686;SDS011;38584;49.426;8.396;2023-09-07T14:14:31;11.63;;;3.30;;
52686;SDS011;38584;49.426;8.396;2023-09-07T14:16:56;9.43;;;3.60;;
52686;SDS011;38584;49.426;8.396;2023-09-07T14:19:23;11.55;;;3.40;;
52686;SDS011;38584;49.426;8.396;2023-09-07T14:24:48;9.25;;;3.28;;
52686;SDS011;38584;49.426;8.396;2023-09-07T14:27:13;10.43;;;3.47;;
52686;SDS011;38584;49.426;8.396;2023-09-07T14:29:38;8.55;;;3.35;;
52686;SDS011;38584;49.426;8.396;2023-09-07T14:32:04;11.07;;;3.72;;
52686;SDS011;38584;49.426;8.396;2023-09-07T14:34:29;8.60;;;3.30;;
52686;SDS011;38584;49.426;8.396;2023-09-07T14:36:54;9.93;;;3.20;;
52686;SDS011;38584;49.426;8.396;2023-09-07T14:39:20;13.82;;;3.72;;
52686;SDS011;38584;49.426;8.396;2023-09-07T14:41:52;11.35;;;3.22;;
52686;SDS011;38584;49.426;8.396;2023-09-07T14:44:20;6.70;;;3.25;;